Latest Weather Observations for Melbourne (Olympic Park)

IDV60901

Issued at 6:31 pm EST Wednesday 28 September 2016 (issued every 10 minutes, with the page automatically refreshed every 10 minutes)

About weather observations | Map of Melbourne area stations | Latest observations for Melbourne area | Other Formats
Station Details ID: 086338 Name: MELBOURNE (OLYMPIC PARK) Lat: -37.83 Lon: 144.98 Height: 7.53 m
Data from the previous 72 hours. | See also: Recent months at Melbourne (Olympic Park)
Date/Time
EST
Temp
°C
App
Temp
°C
Dew
Point
°C
Rel
Hum
%
Delta-T
°C
Wind Press
QNH
hPa
Press
MSL
hPa
Rain since
9am
mm
Dir  Spd
km/h
Gust
km/h
Spd
kts
Gust
kts
28/06:30pm 16.5 11.9 6.3 51 5.0 NNE 20 35 11 19 1001.1 1001.1 0.0
28/06:00pm 16.6 12.6 6.7 52 4.9 NNE 17 30 9 16 1001.5 1001.5 0.0
28/05:30pm 16.7 12.8 7.1 53 4.8 N 17 24 9 13 1001.9 1001.9 0.0
28/05:00pm 17.2 13.2 6.7 50 5.2 NNE 17 26 9 14 1002.4 1002.4 0.0
28/04:30pm 17.4 13.5 7.2 51 5.1 NNE 17 28 9 15 1002.6 1002.6 0.0
28/04:00pm 17.6 13.1 7.1 50 5.3 NNE 20 33 11 18 1003.0 1003.0 0.0
28/03:30pm 18.0 13.6 7.4 50 5.3 NNE 20 32 11 17 1002.7 1002.7 0.0
28/03:00pm 17.9 12.5 6.4 47 5.7 NNE 24 39 13 21 1003.6 1003.6 0.0
28/02:30pm 18.0 11.9 6.5 47 5.7 NNE 28 41 15 22 1004.4 1004.4 0.0
28/02:00pm 18.5 14.7 7.6 49 5.6 NNE 17 30 9 16 1005.2 1005.2 0.0
28/01:30pm 17.9 14.0 7.3 50 5.3 NNE 17 30 9 16 1006.1 1006.1 0.0
28/01:00pm 18.1 13.2 6.9 48 5.6 N 22 35 12 19 1007.0 1007.0 0.0
28/12:30pm 17.0 11.6 6.5 50 5.2 N 24 35 13 19 1008.2 1008.2 0.0
28/12:00pm 16.4 10.7 6.5 52 4.9 N 26 35 14 19 1009.4 1009.4 0.0
28/11:30am 16.3 11.4 6.7 53 4.7 N 22 33 12 18 1010.2 1010.2 0.0
28/11:00am 16.2 11.4 7.2 55 4.5 N 22 32 12 17 1010.8 1010.8 0.0
28/10:30am 15.5 11.0 6.8 56 4.3 N 20 30 11 16 1011.3 1011.3 0.0
28/10:00am 15.5 11.9 8.3 62 3.6 N 17 26 9 14 1011.7 1011.7 0.0
28/09:30am 14.4 10.5 7.2 62 3.5 NNW 17 22 9 12 1011.8 1011.8 0.0
28/09:00am 13.6 9.9 7.8 68 2.9 N 17 26 9 14 1012.2 1012.2 2.2
28/08:30am 12.4 9.8 7.7 73 2.3 N 11 19 6 10 1012.6 1012.6 2.2
28/08:00am 10.5 7.3 7.0 79 1.7 NNE 13 17 7 9 1012.9 1012.9 2.2
28/07:30am 10.0 7.2 7.1 82 1.4 NNE 11 17 6 9 1013.1 1013.1 2.2
28/07:00am 8.3 5.9 7.2 93 0.5 NE 9 13 5 7 1013.1 1013.1 2.2
28/06:30am 7.6 5.1 6.7 94 0.4 NNE 9 15 5 8 1013.0 1013.0 2.2
28/06:00am 7.6 5.1 6.5 93 0.5 NNE 9 11 5 6 1012.9 1012.9 2.2
28/05:30am 7.8 5.7 6.7 93 0.5 NNE 7 11 4 6 1012.7 1012.7 2.2
28/05:00am 8.3 5.9 7.1 92 0.6 NNE 9 15 5 8 1012.7 1012.7 2.2
28/04:30am 8.3 5.9 7.1 92 0.6 NNE 9 13 5 7 1012.6 1012.6 2.2
28/04:00am 8.5 6.2 7.3 92 0.6 NNE 9 13 5 7 1012.7 1012.7 2.0
28/03:30am 8.6 6.6 7.2 91 0.7 ENE 7 9 4 5 1012.6 1012.6 2.0
28/03:00am 8.7 6.3 7.2 90 0.7 NE 9 11 5 6 1012.7 1012.7 2.0
28/02:30am 8.5 6.5 7.3 92 0.6 NE 7 9 4 5 1012.7 1012.7 2.0
28/02:00am 8.5 6.2 7.3 92 0.6 NNE 9 13 5 7 1012.5 1012.5 2.0
28/01:30am 8.7 6.8 7.6 93 0.5 NNE 7 13 4 7 1012.6 1012.6 2.0
28/01:00am 8.6 6.9 7.4 92 0.6 N 6 7 3 4 1012.8 1012.8 2.0
28/12:30am 9.0 7.2 7.9 93 0.5 N 7 11 4 6 1012.8 1012.8 2.0
28/12:00am 9.2 7.1 8.3 94 0.4 NNE 9 17 5 9 1012.8 1012.8 2.0
 
Date/Time
EST
Temp
°C
App
Temp
°C
Dew
Point
°C
Rel
Hum
%
Delta-T
°C
Wind Press
QNH
hPa
Press
MSL
hPa
Rain since
9am
mm
Dir  Spd
km/h
Gust
km/h
Spd
kts
Gust
kts
27/11:30pm 9.6 7.6 8.7 94 0.4 NNE 9 11 5 6 1012.9 1012.9 2.0
27/11:00pm 10.0 8.1 8.9 93 0.5 NNE 9 13 5 7 1012.9 1012.9 2.0
27/10:30pm 10.4 8.9 9.3 93 0.5 NNE 7 11 4 6 1013.1 1013.1 2.0
27/10:00pm 10.6 9.4 9.4 92 0.6 NNE 6 11 3 6 1013.2 1013.2 2.0
27/09:30pm 10.9 9.2 9.7 92 0.6 NNE 9 11 5 6 1013.3 1013.3 2.0
27/09:00pm 10.4 10.3 9.6 95 0.4 CALM 0 0 0 0 1013.4 1013.4 2.0
27/08:30pm 10.0 9.1 9.1 94 0.4 ENE 4 9 2 5 1013.4 1013.4 2.0
27/08:00pm 10.2 10.0 9.1 93 0.5 CALM 0 0 0 0 1013.3 1013.3 2.0
27/07:30pm 10.5 10.3 8.9 90 0.8 CALM 0 0 0 0 1013.3 1013.3 2.0
27/07:00pm 11.3 11.1 9.0 86 1.1 CALM 0 0 0 0 1013.2 1013.2 2.0
27/06:30pm 12.2 12.0 8.9 80 1.6 CALM 0 0 0 0 1012.9 1012.9 2.0
27/06:00pm 13.2 12.9 8.5 73 2.3 CALM 0 0 0 0 1012.7 1012.7 2.0
27/05:30pm 14.4 13.8 7.5 63 3.4 CALM 0 0 0 0 1012.5 1012.5 2.0
27/05:00pm 13.9 12.7 7.9 67 3.0 SSW 4 7 2 4 1012.3 1012.3 2.0
27/04:30pm 14.0 12.5 8.6 70 2.7 SSW 6 9 3 5 1012.1 1012.1 2.0
27/04:00pm 13.5 12.1 9.4 76 2.1 SSE 7 15 4 8 1011.9 1011.9 2.0
27/03:30pm 12.9 10.5 9.9 82 1.5 S 13 26 7 14 1011.9 1011.9 2.0
27/03:00pm 14.0 11.9 9.8 76 2.2 SSW 11 24 6 13 1011.8 1011.8 2.0
27/02:30pm 12.7 11.1 10.1 84 1.3 SW 9 22 5 12 1012.0 1012.0 2.0
27/02:00pm 12.8 9.8 9.3 79 1.8 SW 15 32 8 17 1012.0 1012.0 1.6
27/01:30pm 13.3 11.2 9.9 80 1.7 SW 11 24 6 13 1011.9 1011.9 1.6
27/01:00pm 13.0 12.0 10.2 83 1.4 NW 6 20 3 11 1011.8 1011.8 1.6
27/12:30pm 13.3 11.6 8.2 71 2.5 SSW 7 11 4 6 1011.9 1011.9 0.0
27/12:00pm 13.8 11.6 6.4 61 3.6 SW 7 15 4 8 1011.7 1011.7 0.0
27/11:30am 14.3 11.9 6.9 61 3.6 SSW 9 15 5 8 1011.7 1011.7 0.0
27/11:00am 13.8 10.9 6.7 62 3.4 WSW 11 20 6 11 1011.8 1011.8 0.0
27/10:30am 13.6 10.9 7.2 65 3.1 WSW 11 17 6 9 1011.9 1011.9 0.0
27/10:00am 12.4 9.6 6.9 69 2.6 W 11 20 6 11 1012.0 1012.0 0.0
27/09:30am 12.3 9.1 7.0 70 2.5 WNW 13 19 7 10 1011.9 1011.9 0.0
27/09:00am 11.6 8.6 6.1 69 2.6 WNW 11 24 6 13 1011.7 1011.7 12.6
27/08:30am 11.2 8.1 5.5 68 2.6 WNW 11 17 6 9 1011.5 1011.5 12.6
27/08:00am 10.3 6.7 4.9 69 2.4 NW 13 19 7 10 1011.3 1011.3 12.6
27/07:30am 9.4 6.1 4.4 71 2.2 NW 11 17 6 9 1011.2 1011.2 12.6
27/07:00am 8.6 5.3 4.6 76 1.8 NW 11 17 6 9 1011.0 1011.0 12.6
27/06:30am 8.0 5.1 4.4 78 1.6 NW 9 13 5 7 1010.6 1010.6 12.6
27/06:00am 8.2 4.9 4.4 77 1.7 NW 11 17 6 9 1010.3 1010.3 12.6
27/05:30am 7.5 5.2 5.0 84 1.1 NW 6 11 3 6 1010.0 1010.0 12.6
27/05:00am 7.7 5.9 5.2 84 1.1 NW 4 9 2 5 1009.8 1009.8 12.6
27/04:30am 8.3 5.9 5.1 80 1.4 WNW 7 11 4 6 1009.7 1009.7 12.6
27/04:00am 8.5 6.5 6.1 85 1.1 WNW 6 15 3 8 1009.6 1009.6 12.6
27/03:30am 8.5 6.8 6.1 85 1.1 W 4 9 2 5 1009.4 1009.4 12.6
27/03:00am 8.5 7.3 6.5 87 0.9 WNW 2 7 1 4 1009.3 1009.3 12.6
27/02:30am 9.0 7.1 6.8 86 1.0 WSW 6 13 3 7 1009.5 1009.5 12.6
27/02:00am 9.0 6.8 6.4 84 1.2 WNW 7 11 4 6 1009.7 1009.7 12.4
27/01:30am 8.8 8.1 7.1 89 0.8 CALM 0 6 0 3 1009.8 1009.8 12.0
27/01:00am 9.0 6.6 6.8 86 1.0 N 9 13 5 7 1009.8 1009.8 11.6
27/12:30am 8.8 6.8 7.3 90 0.7 NNE 7 9 4 5 1009.9 1009.9 11.4
27/12:00am 8.7 7.4 7.6 93 0.5 ENE 4 9 2 5 1010.0 1010.0 11.4
 
Date/Time
EST
Temp
°C
App
Temp
°C
Dew
Point
°C
Rel
Hum
%
Delta-T
°C
Wind Press
QNH
hPa
Press
MSL
hPa
Rain since
9am
mm
Dir  Spd
km/h
Gust
km/h
Spd
kts
Gust
kts
26/11:30pm 8.2 7.2 7.4 95 0.4 SE 2 7 1 4 1010.1 1010.1 11.4
26/11:00pm 8.7 6.4 7.3 91 0.7 NNE 9 13 5 7 1010.0 1010.0 11.4
26/10:30pm 8.6 7.6 7.2 91 0.7 NNW 2 7 1 4 1010.4 1010.4 11.2
26/10:00pm 8.6 6.2 7.1 90 0.7 NNW 9 15 5 8 1010.7 1010.7 10.8
26/09:30pm 8.4 6.1 7.3 93 0.5 W 9 17 5 9 1011.4 1011.4 8.4
26/09:00pm 8.3 5.2 7.1 92 0.6 W 13 24 7 13 1011.1 1011.1 6.8
26/08:30pm 11.2 10.4 9.8 91 0.7 WNW 4 9 2 5 1009.9 1009.9 3.6
26/08:00pm 11.4 9.1 9.0 85 1.2 NNE 11 15 6 8 1009.4 1009.4 3.6
26/07:30pm 11.7 10.0 8.4 80 1.6 NNW 7 19 4 10 1009.5 1009.5 3.6
26/07:00pm 11.7 11.3 9.6 87 1.1 W 2 6 1 3 1009.6 1009.6 3.0
26/06:30pm 12.3 10.3 8.8 79 1.7 NW 9 20 5 11 1009.8 1009.8 2.6
26/06:00pm 15.4 11.9 5.3 51 4.8 N 13 20 7 11 1008.9 1008.9 0.8
26/05:30pm 15.8 11.4 4.8 48 5.2 NNW 17 22 9 12 1008.5 1008.5 0.8
26/05:00pm 15.7 12.4 4.7 48 5.2 N 11 15 6 8 1008.5 1008.5 0.8
26/04:30pm 16.0 12.7 4.7 47 5.3 NNW 11 20 6 11 1008.6 1008.6 0.8
26/04:00pm 16.0 12.2 4.1 45 5.5 NW 13 22 7 12 1008.8 1008.8 0.8
26/03:30pm 14.6 13.8 8.3 66 3.2 W 2 9 1 5 1009.0 1009.0 0.8
26/03:00pm 15.0 11.4 5.2 52 4.6 W 13 28 7 15 1009.5 1009.5 0.2
26/02:30pm 16.4 12.7 2.1 38 6.4 NW 11 28 6 15 1009.3 1009.3 0.2
26/02:00pm 16.3 12.6 2.3 39 6.3 NW 11 19 6 10 1009.6 1009.6 0.2
26/01:30pm 16.3 12.0 3.0 41 6.1 NW 15 26 8 14 1009.7 1009.7 0.2
26/01:00pm 16.1 13.4 3.9 44 5.7 W 7 15 4 8 1010.1 1010.1 0.2
26/12:30pm 15.6 12.9 3.7 45 5.5 WNW 7 13 4 7 1010.6 1010.6 0.2
26/12:00pm 15.7 13.3 4.1 46 5.4 NW 6 19 3 10 1011.2 1011.2 0.2
26/11:30am 16.2 13.1 3.6 43 5.8 WSW 9 17 5 9 1011.4 1011.4 0.0
26/11:00am 15.0 11.4 3.2 45 5.3 NNW 11 19 6 10 1011.9 1011.9 0.0
26/10:30am 14.1 10.9 3.3 48 4.9 WNW 9 20 5 11 1012.4 1012.4 0.0
26/10:00am 14.6 12.3 4.9 52 4.5 WNW 6 13 3 7 1012.5 1012.5 0.0
26/09:30am 14.0 11.3 5.4 56 4.0 WNW 9 19 5 10 1012.8 1012.8 0.0
26/09:00am 13.5 10.7 6.8 64 3.2 NW 11 19 6 10 1012.9 1012.9 0.6
26/08:30am 12.2 9.1 7.3 72 2.4 N 13 17 7 9 1013.0 1013.0 0.6
26/08:00am 10.8 9.1 8.2 84 1.3 NE 7 11 4 6 1013.2 1013.2 0.6
26/07:30am 8.9 6.7 7.7 92 0.6 NNE 9 11 5 6 1013.3 1013.3 0.6
26/07:00am 8.6 6.7 7.5 93 0.5 NNE 7 11 4 6 1013.3 1013.3 0.6
26/06:30am 8.2 5.8 7.0 92 0.6 NNE 9 11 5 6 1013.2 1013.2 0.6
26/06:00am 8.2 6.3 6.8 91 0.6 N 6 9 3 5 1013.0 1013.0 0.6
26/05:30am 8.3 5.9 6.8 90 0.7 NE 9 13 5 7 1013.1 1013.1 0.4
26/05:00am 8.2 5.7 6.5 89 0.8 NE 9 11 5 6 1013.1 1013.1 0.0
26/04:30am 8.3 5.7 6.3 87 0.9 NNE 9 13 5 7 1013.0 1013.0 0.0
26/04:00am 8.6 6.6 6.2 85 1.1 NE 6 9 3 5 1012.9 1012.9 0.0
26/03:30am 8.6 6.9 5.9 83 1.2 NNE 4 7 2 4 1013.0 1013.0 0.0
26/03:00am 8.6 6.3 5.9 83 1.2 E 7 9 4 5 1013.1 1013.1 0.0
26/02:30am 8.5 5.5 5.8 83 1.2 NNE 11 13 6 7 1013.2 1013.2 0.0
26/02:00am 8.7 6.5 6.0 83 1.2 NE 7 11 4 6 1013.4 1013.4 0.0
26/01:30am 9.0 6.0 6.1 82 1.3 NNE 11 15 6 8 1013.5 1013.5 0.0
26/01:00am 9.3 6.8 6.4 82 1.3 NE 9 11 5 6 1013.8 1013.8 0.0
26/12:30am 8.7 7.9 6.7 87 0.9 CALM 0 4 0 2 1013.9 1013.9 0.0
26/12:00am 10.0 7.9 5.6 74 2.0 N 6 11 3 6 1014.0 1014.0 0.0
 
Date/Time
EST
Temp
°C
App
Temp
°C
Dew
Point
°C
Rel
Hum
%
Delta-T
°C
Wind Press
QNH
hPa
Press
MSL
hPa
Rain since
9am
mm
Dir  Spd
km/h
Gust
km/h
Spd
kts
Gust
kts
25/11:30pm 10.5 8.3 5.3 70 2.4 NNE 6 9 3 5 1014.1 1014.1 0.0
25/11:00pm 10.5 9.7 6.5 76 1.9 CALM 0 0 0 0 1014.4 1014.4 0.0
25/10:30pm 11.1 10.1 5.4 68 2.6 CALM 0 6 0 3 1014.6 1014.6 0.0
25/10:00pm 11.3 10.1 6.4 72 2.3 SSE 2 9 1 5 1014.6 1014.6 0.0
25/09:30pm 11.4 9.7 5.9 69 2.6 SSE 4 9 2 5 1014.5 1014.5 0.0
25/09:00pm 11.2 9.5 6.1 71 2.4 SSE 4 7 2 4 1014.5 1014.5 0.0
25/08:30pm 10.8 9.9 6.0 72 2.2 CALM 0 6 0 3 1014.4 1014.4 0.0
25/08:00pm 10.9 9.9 5.4 69 2.5 CALM 0 0 0 0 1014.2 1014.2 0.0
25/07:30pm 10.7 9.7 5.5 70 2.4 CALM 0 0 0 0 1013.7 1013.7 0.0
25/07:00pm 11.3 9.9 5.4 67 2.7 SSE 2 9 1 5 1013.1 1013.1 0.0

Latest Capital City Observations: Canberra | Sydney | Melbourne | Brisbane | Adelaide | Perth | Hobart | Darwin

Other Formats:

Comma delimited format used in spreadsheet applications
http://www.bom.gov.au/fwo/IDV60901/IDV60901.95936.axf

JavaScript Object Notation format (JSON) in row-major order
http://www.bom.gov.au/fwo/IDV60901/IDV60901.95936.json